createdAt,value
2019-06-10T00:02:26.840Z,31.43
2019-06-10T00:05:00.287Z,33.27
2019-06-10T00:07:31.957Z,32.97
2019-06-10T00:10:07.436Z,32.97
2019-06-10T00:12:38.842Z,38.00
2019-06-10T00:15:11.143Z,30.63
2019-06-10T00:17:54.881Z,42.03
2019-06-10T00:20:17.311Z,31.70
2019-06-10T00:22:51.353Z,38.17
2019-06-10T00:25:21.946Z,34.40
2019-06-10T00:27:53.736Z,35.60
2019-06-10T00:30:27.040Z,33.20
2019-06-10T00:33:00.567Z,34.37
2019-06-10T00:35:32.766Z,33.27
2019-06-10T00:38:07.257Z,33.67
2019-06-10T00:40:37.832Z,28.73
2019-06-10T00:43:13.134Z,26.80
2019-06-10T00:45:43.688Z,29.33
2019-06-10T00:48:25.220Z,31.40
2019-06-10T00:50:48.228Z,28.00
2019-06-10T00:53:21.188Z,30.13
2019-06-10T00:55:52.770Z,25.43
2019-06-10T00:58:24.626Z,22.97
2019-06-10T01:00:56.589Z,27.73
2019-06-10T01:03:31.146Z,32.73
2019-06-10T01:06:03.043Z,26.20
2019-06-10T01:08:35.141Z,28.40
2019-06-10T01:11:14.271Z,26.67
2019-06-10T01:13:41.460Z,27.30
2019-06-10T01:16:15.234Z,32.50
2019-06-10T01:18:50.328Z,28.70
2019-06-10T01:21:21.880Z,26.60
2019-06-10T01:23:53.890Z,26.87
2019-06-10T01:26:27.891Z,27.77
2019-06-10T01:29:00.978Z,29.60
2019-06-10T01:31:33.770Z,27.43
2019-06-10T01:34:05.841Z,23.53
2019-06-10T01:36:37.800Z,24.30
2019-06-10T01:39:12.020Z,21.60
2019-06-10T01:41:43.577Z,25.10
2019-06-10T01:44:16.445Z,23.00
2019-06-10T01:46:48.921Z,21.80
2019-06-10T01:49:21.442Z,22.90
2019-06-10T01:51:53.767Z,20.07
2019-06-10T01:54:25.756Z,21.83
2019-06-10T01:56:57.688Z,19.40
2019-06-10T01:59:31.126Z,18.10
2019-06-10T02:02:07.555Z,17.27
2019-06-10T02:04:41.139Z,17.30
2019-06-10T02:07:15.577Z,18.30
2019-06-10T02:09:46.413Z,20.67
2019-06-10T02:12:20.138Z,16.97
2019-06-10T02:14:51.473Z,19.70
2019-06-10T02:17:24.043Z,22.87
2019-06-10T02:19:55.904Z,21.20
2019-06-10T02:22:31.816Z,21.23
2019-06-10T02:25:03.001Z,23.10
2019-06-10T02:27:34.870Z,21.80
2019-06-10T02:30:14.948Z,21.33
2019-06-10T02:32:42.742Z,22.20
2019-06-10T02:35:26.309Z,21.20
2019-06-10T02:37:48.065Z,23.37
2019-06-10T02:40:30.903Z,22.37
2019-06-10T02:42:56.166Z,27.10
2019-06-10T02:45:33.692Z,31.27
2019-06-10T02:48:04.226Z,41.20
2019-06-10T02:50:54.058Z,29.80
2019-06-10T02:53:30.742Z,26.97
2019-06-10T02:55:58.710Z,33.33
2019-06-10T02:58:38.494Z,28.40
2019-06-10T03:01:04.713Z,29.97
2019-06-10T03:03:43.829Z,30.50
2019-06-10T03:06:13.627Z,25.10
2019-06-10T03:08:44.250Z,23.90
2019-06-10T03:11:16.567Z,25.37
2019-06-10T03:13:49.510Z,25.30
2019-06-10T03:16:29.157Z,21.33
2019-06-10T03:19:02.932Z,25.17
2019-06-10T03:21:34.613Z,22.93
2019-06-10T03:24:08.532Z,23.73
2019-06-10T03:26:42.657Z,18.80
2019-06-10T03:29:13.373Z,18.17
2019-06-10T03:31:48.037Z,19.23
2019-06-10T03:34:23.221Z,16.13
2019-06-10T03:36:53.509Z,15.65
2019-06-10T03:39:26.919Z,20.85
2019-06-10T03:41:58.918Z,18.90
2019-06-10T03:44:33.652Z,19.90
2019-06-10T03:47:05.913Z,22.82
2019-06-10T03:49:49.906Z,17.57
2019-06-10T03:52:12.832Z,28.32
2019-06-10T03:54:44.265Z,18.55
2019-06-10T03:57:15.613Z,19.82
2019-06-10T03:59:47.469Z,24.07
2019-06-10T04:02:19.419Z,20.20
2019-06-10T04:04:52.327Z,24.63
2019-06-10T04:07:27.760Z,22.70
2019-06-10T04:09:57.065Z,22.35
2019-06-10T04:12:29.547Z,25.15
2019-06-10T04:15:03.700Z,18.17
2019-06-10T04:17:36.461Z,15.55
2019-06-10T04:20:12.474Z,23.55
2019-06-10T04:22:44.461Z,15.48
2019-06-10T04:25:17.651Z,13.65
2019-06-10T04:27:49.193Z,13.68
2019-06-10T04:30:24.350Z,19.67
2019-06-10T04:32:55.527Z,13.15
2019-06-10T04:35:27.977Z,13.40
2019-06-10T04:38:03.193Z,8.70
2019-06-10T04:40:35.675Z,11.65
2019-06-10T04:43:08.040Z,10.10
2019-06-10T04:45:42.836Z,15.53
2019-06-10T04:48:13.808Z,12.15
2019-06-10T04:50:46.595Z,13.15
2019-06-10T04:53:18.784Z,19.30
2019-06-10T04:55:52.308Z,13.72
2019-06-10T04:58:27.597Z,18.00
2019-06-10T05:00:59.037Z,15.03
2019-06-10T05:03:32.873Z,10.23
2019-06-10T05:06:05.329Z,10.72
2019-06-10T05:08:37.592Z,9.40
2019-06-10T05:11:12.653Z,12.05
2019-06-10T05:13:43.873Z,10.13
2019-06-10T05:16:17.575Z,13.40
2019-06-10T05:18:54.222Z,11.03
2019-06-10T05:21:26.704Z,5.65
2019-06-10T05:23:57.580Z,13.70
2019-06-10T05:26:32.737Z,12.23
2019-06-10T05:29:04.558Z,9.40
2019-06-10T05:31:37.033Z,10.95
2019-06-10T05:34:13.188Z,10.30
2019-06-10T05:36:44.549Z,16.10
2019-06-10T05:39:17.531Z,13.88
2019-06-10T05:41:50.835Z,15.08
2019-06-10T05:44:28.093Z,10.50
2019-06-10T05:47:03.420Z,13.60
2019-06-10T05:49:36.315Z,10.90
2019-06-10T05:52:12.499Z,10.20
2019-06-10T05:54:44.253Z,14.35
2019-06-10T05:57:16.624Z,7.08
2019-06-10T05:59:48.990Z,13.88
2019-06-10T06:02:22.337Z,19.32
2019-06-10T06:04:54.770Z,9.15
2019-06-10T06:07:27.145Z,11.70
2019-06-10T06:09:59.516Z,10.75
2019-06-10T06:12:35.818Z,10.63
2019-06-10T06:15:08.199Z,15.90
2019-06-10T06:17:40.328Z,10.18
2019-06-10T06:20:13.789Z,18.55
2019-06-10T06:22:48.315Z,12.73
2019-06-10T06:25:23.981Z,17.95
2019-06-10T06:27:54.715Z,10.88
2019-06-10T06:30:28.118Z,13.60
2019-06-10T06:33:02.901Z,13.30
2019-06-10T06:35:40.890Z,10.43
2019-06-10T06:38:08.346Z,17.42
2019-06-10T06:40:43.545Z,13.50
2019-06-10T06:43:15.130Z,18.23
2019-06-10T06:45:47.487Z,10.80
2019-06-10T06:48:19.839Z,12.10
2019-06-10T06:51:04.398Z,19.70
2019-06-10T06:53:37.298Z,14.18
2019-06-10T06:56:03.851Z,18.50
2019-06-10T06:58:52.692Z,17.48
2019-06-10T07:01:27.713Z,17.05
2019-06-10T07:04:02.435Z,24.90
2019-06-10T07:06:36.038Z,18.70
2019-06-10T07:09:08.992Z,18.62
2019-06-10T07:11:44.930Z,18.15
2019-06-10T07:14:15.628Z,19.07
2019-06-10T07:16:47.989Z,17.60
2019-06-10T07:19:22.511Z,21.85
2019-06-10T07:22:08.307Z,18.67
2019-06-10T07:24:27.280Z,25.20
2019-06-10T07:27:02.591Z,20.20
2019-06-10T07:29:37.061Z,21.00
2019-06-10T07:32:08.059Z,24.85
2019-06-10T07:34:40.481Z,20.70
2019-06-10T07:37:13.695Z,24.72
2019-06-10T07:39:45.518Z,22.47
2019-06-10T07:42:17.856Z,19.15
2019-06-10T07:44:49.515Z,21.73
2019-06-10T07:47:23.129Z,23.00
2019-06-10T07:49:55.686Z,27.77
2019-06-10T07:52:27.558Z,27.42
2019-06-10T07:55:02.512Z,24.80
2019-06-10T07:57:35.650Z,21.40
2019-06-10T08:00:12.757Z,23.22
2019-06-10T08:02:45.961Z,19.07
2019-06-10T08:05:17.731Z,21.93
2019-06-10T08:07:50.175Z,19.75
2019-06-10T08:10:23.266Z,14.35
2019-06-10T08:12:55.035Z,20.35
2019-06-10T08:15:27.296Z,19.40
2019-06-10T08:17:59.882Z,20.37
2019-06-10T08:20:47.620Z,18.85
2019-06-10T08:23:23.350Z,16.87
2019-06-10T08:25:57.569Z,13.58
2019-06-10T08:28:27.076Z,16.82
2019-06-10T08:31:03.684Z,17.05
2019-06-10T08:33:36.973Z,13.22
2019-06-10T08:36:08.498Z,13.80
2019-06-10T08:38:43.474Z,14.05
2019-06-10T08:41:13.746Z,14.33
2019-06-10T08:43:48.202Z,18.62
2019-06-10T08:46:19.415Z,14.58
2019-06-10T08:48:52.608Z,16.15
2019-06-10T08:51:24.465Z,13.50
2019-06-10T08:53:56.222Z,9.50
2019-06-10T08:56:27.890Z,13.60
2019-06-10T08:59:00.145Z,9.70
2019-06-10T09:01:33.408Z,8.20
2019-06-10T09:04:05.303Z,12.18
2019-06-10T09:06:38.795Z,11.90
2019-06-10T09:09:12.886Z,8.90
2019-06-10T09:11:47.929Z,13.85
2019-06-10T09:14:18.893Z,7.70
2019-06-10T09:16:54.056Z,10.10
2019-06-10T09:19:24.975Z,8.08
2019-06-10T09:21:56.903Z,12.35
2019-06-10T09:24:29.399Z,8.48
2019-06-10T09:27:02.896Z,10.90
2019-06-10T09:29:35.174Z,6.17
2019-06-10T09:32:07.857Z,6.83
2019-06-10T09:34:43.094Z,13.08
2019-06-10T09:37:15.354Z,8.28
2019-06-10T09:39:55.935Z,7.55
2019-06-10T09:42:24.096Z,10.85
2019-06-10T09:44:57.120Z,12.78
2019-06-10T09:47:30.271Z,7.72
2019-06-10T09:50:03.318Z,9.30
2019-06-10T09:52:35.530Z,7.22
2019-06-10T09:55:08.768Z,8.00
2019-06-10T09:57:43.687Z,8.50
2019-06-10T10:00:17.879Z,17.67
2019-06-10T10:02:52.060Z,11.73
2019-06-10T10:05:24.367Z,9.38
2019-06-10T10:07:57.441Z,9.38
2019-06-10T10:10:39.618Z,4.42
2019-06-10T10:13:13.056Z,8.63
2019-06-10T10:15:45.742Z,8.63
2019-06-10T10:18:17.714Z,8.75
2019-06-10T10:20:51.557Z,9.18
2019-06-10T10:23:23.817Z,8.23
2019-06-10T10:25:57.180Z,6.42
2019-06-10T10:28:29.550Z,5.72
2019-06-10T10:31:04.471Z,6.62
2019-06-10T10:33:35.726Z,6.90
2019-06-10T10:36:08.608Z,9.60
2019-06-10T10:38:40.655Z,6.50
2019-06-10T10:41:13.526Z,6.00
2019-06-10T10:43:48.860Z,5.22
2019-06-10T10:46:22.922Z,6.28
2019-06-10T10:48:56.306Z,6.78
2019-06-10T10:51:27.742Z,8.25
2019-06-10T10:54:20.711Z,7.97
2019-06-10T10:56:34.101Z,4.90
2019-06-10T10:59:06.157Z,6.47
2019-06-10T11:01:38.156Z,12.43
2019-06-10T11:04:13.021Z,9.48
2019-06-10T11:06:44.583Z,5.22
2019-06-10T11:09:22.029Z,5.47
2019-06-10T11:11:55.052Z,8.45
2019-06-10T11:14:28.214Z,6.15
2019-06-10T11:17:02.796Z,7.80
2019-06-10T11:19:34.512Z,5.83
2019-06-10T11:22:06.485Z,7.70
2019-06-10T11:24:42.049Z,5.65
2019-06-10T11:27:12.824Z,8.50
2019-06-10T11:29:44.726Z,11.93
2019-06-10T11:32:17.954Z,6.25
2019-06-10T11:34:56.076Z,9.85
2019-06-10T11:37:25.410Z,9.65
2019-06-10T11:39:57.396Z,7.00
2019-06-10T11:42:29.289Z,9.60
2019-06-10T11:45:02.940Z,8.98
2019-06-10T11:47:34.957Z,5.22
2019-06-10T11:50:07.370Z,6.80
2019-06-10T11:52:39.450Z,8.43
2019-06-10T11:55:18.445Z,8.08
2019-06-10T11:57:45.132Z,5.53
2019-06-10T12:00:18.845Z,6.20
2019-06-10T12:02:53.179Z,5.72
2019-06-10T12:05:25.358Z,7.08
2019-06-10T12:07:59.791Z,9.83
2019-06-10T12:10:33.058Z,7.12
2019-06-10T12:13:07.312Z,10.20
2019-06-10T12:16:19.906Z,5.97
2019-06-10T12:18:13.653Z,5.22
2019-06-10T12:20:45.560Z,8.43
2019-06-10T12:23:19.008Z,7.45
2019-06-10T12:25:54.595Z,6.72
2019-06-10T12:28:26.180Z,10.98
2019-06-10T12:31:01.482Z,7.80
2019-06-10T12:33:33.698Z,5.97
2019-06-10T12:36:07.194Z,7.15
2019-06-10T12:38:43.040Z,7.45
2019-06-10T12:41:15.438Z,9.50
2019-06-10T12:43:53.082Z,10.53
2019-06-10T12:46:23.838Z,8.08
2019-06-10T12:49:02.082Z,6.67
2019-06-10T12:51:32.801Z,9.63
2019-06-10T12:54:06.370Z,7.70
2019-06-10T12:56:38.622Z,9.08
2019-06-10T12:59:13.313Z,9.90
2019-06-10T13:01:46.763Z,5.95
2019-06-10T13:04:18.642Z,9.58
2019-06-10T13:06:52.721Z,5.58
2019-06-10T13:09:25.975Z,6.60
2019-06-10T13:11:57.936Z,9.08
2019-06-10T13:14:29.808Z,10.75
2019-06-10T13:17:02.973Z,6.37
2019-06-10T13:19:35.506Z,8.15
2019-06-10T13:22:08.875Z,7.55
2019-06-10T13:24:42.363Z,10.95
2019-06-10T13:27:14.669Z,9.23
2019-06-10T13:29:47.979Z,9.43
2019-06-10T13:32:20.595Z,12.37
2019-06-10T13:34:54.207Z,6.67
2019-06-10T13:37:26.046Z,6.75
2019-06-10T13:39:59.374Z,9.45
2019-06-10T13:42:36.052Z,7.65
2019-06-10T13:45:09.706Z,10.00
2019-06-10T13:47:43.037Z,12.98
2019-06-10T13:50:19.229Z,8.70
2019-06-10T13:52:53.346Z,8.15
2019-06-10T13:55:25.884Z,10.32
2019-06-10T13:57:59.517Z,8.40
2019-06-10T14:00:45.796Z,9.20
2019-06-10T14:03:11.264Z,12.50
2019-06-10T14:05:44.877Z,9.73
2019-06-10T14:08:18.511Z,8.20
2019-06-10T14:10:50.377Z,11.90
2019-06-10T14:13:23.560Z,8.75
2019-06-10T14:15:55.900Z,12.73
2019-06-10T14:18:28.335Z,6.72
2019-06-10T14:21:05.240Z,10.32
2019-06-10T14:23:34.506Z,11.40
2019-06-10T14:26:08.364Z,7.22
2019-06-10T14:28:41.797Z,7.28
2019-06-10T14:31:37.415Z,8.98
2019-06-10T14:33:47.582Z,10.48
2019-06-10T14:36:22.173Z,16.02
2019-06-10T14:38:54.373Z,10.40
2019-06-10T14:41:26.537Z,12.93
2019-06-10T14:43:58.401Z,7.70
2019-06-10T14:46:30.271Z,8.20
2019-06-10T14:49:02.411Z,12.20
2019-06-10T14:51:34.401Z,10.58
2019-06-10T14:54:07.195Z,6.40
2019-06-10T14:56:50.698Z,10.40
2019-06-10T14:59:14.553Z,13.60
2019-06-10T15:01:45.923Z,14.87
2019-06-10T15:04:19.658Z,11.18
2019-06-10T15:06:54.603Z,10.60
2019-06-10T15:09:25.264Z,12.25
2019-06-10T15:11:57.084Z,8.10
2019-06-10T15:14:28.949Z,13.90
2019-06-10T15:17:03.218Z,14.07
2019-06-10T15:19:34.591Z,14.25
2019-06-10T15:22:07.511Z,8.25
2019-06-10T15:24:39.141Z,8.35
2019-06-10T15:27:19.279Z,8.25
2019-06-10T15:29:49.705Z,10.45
2019-06-10T15:32:33.837Z,13.22
2019-06-10T15:34:56.406Z,12.88
2019-06-10T15:37:29.065Z,18.00
2019-06-10T15:40:03.472Z,10.20
2019-06-10T15:42:34.125Z,10.18
2019-06-10T15:45:09.817Z,8.93
2019-06-10T15:47:43.067Z,11.03
2019-06-10T15:50:18.739Z,12.80
2019-06-10T15:52:52.427Z,16.48
2019-06-10T15:55:49.259Z,8.38
2019-06-10T15:58:02.062Z,10.48
2019-06-10T16:00:34.158Z,12.00
2019-06-10T16:03:06.115Z,11.95
2019-06-10T16:05:37.969Z,14.13
2019-06-10T16:08:12.574Z,12.80
2019-06-10T16:10:44.148Z,18.85
2019-06-10T16:13:16.483Z,13.20
2019-06-10T16:15:49.004Z,8.55
2019-06-10T16:18:25.929Z,11.03
2019-06-10T16:20:54.584Z,12.82
2019-06-10T16:23:26.775Z,8.50
2019-06-10T16:25:59.304Z,12.03
2019-06-10T16:28:32.864Z,12.15
2019-06-10T16:31:06.303Z,12.37
2019-06-10T16:33:37.753Z,12.40
2019-06-10T16:36:12.827Z,14.40
2019-06-10T16:38:44.542Z,11.28
2019-06-10T16:41:17.448Z,20.82
2019-06-10T16:43:49.232Z,7.20
2019-06-10T16:46:20.746Z,11.27
2019-06-10T16:48:53.021Z,7.95
2019-06-10T16:51:25.786Z,10.47
2019-06-10T16:53:57.545Z,18.17
2019-06-10T16:56:30.923Z,11.93
2019-06-10T16:59:02.951Z,12.80
2019-06-10T17:01:35.373Z,9.45
2019-06-10T17:04:07.136Z,6.60
2019-06-10T17:06:38.895Z,11.93
2019-06-10T17:09:13.293Z,9.07
2019-06-10T17:11:44.738Z,13.22
2019-06-10T17:14:16.313Z,12.77
2019-06-10T17:16:48.722Z,12.55
2019-06-10T17:19:26.320Z,14.73
2019-06-10T17:21:54.452Z,14.80
2019-06-10T17:24:27.642Z,14.53
2019-06-10T17:27:00.477Z,11.30
2019-06-10T17:29:33.616Z,16.53
2019-06-10T17:32:05.390Z,14.93
2019-06-10T17:34:37.663Z,15.73
2019-06-10T17:37:08.999Z,14.53
2019-06-10T17:39:42.744Z,14.13
2019-06-10T17:42:14.460Z,14.53
2019-06-10T17:44:46.337Z,13.93
2019-06-10T17:47:18.592Z,11.57
2019-06-10T17:49:50.350Z,12.17
2019-06-10T17:52:22.413Z,13.23
2019-06-10T17:54:54.099Z,12.50
2019-06-10T17:57:27.184Z,11.90
2019-06-10T18:00:00.154Z,9.53
2019-06-10T18:02:34.569Z,16.97
2019-06-10T18:05:08.081Z,17.47
2019-06-10T18:07:39.678Z,18.30
2019-06-10T18:10:13.223Z,22.23
2019-06-10T18:12:44.771Z,21.67
2019-06-10T18:15:16.935Z,16.20
2019-06-10T18:17:48.795Z,11.23
2019-06-10T18:34:37.874Z,9.87
2019-06-10T18:37:09.743Z,10.00
2019-06-10T18:39:42.993Z,9.10
2019-06-10T18:42:14.690Z,14.67
2019-06-10T18:44:46.636Z,12.50
2019-06-10T18:47:18.514Z,14.50
2019-06-10T18:49:52.724Z,12.90
2019-06-10T18:52:24.457Z,11.57
2019-06-10T18:54:55.918Z,14.57
2019-06-10T18:57:28.767Z,8.60
2019-06-10T19:00:02.910Z,8.37
2019-06-10T19:02:34.459Z,12.20
2019-06-10T19:05:13.577Z,8.60
2019-06-10T19:07:46.880Z,11.97
2019-06-10T19:10:18.950Z,8.73
2019-06-10T20:47:17.579Z,11.00
2019-06-10T20:49:51.864Z,11.13
2019-06-10T20:52:22.807Z,13.50
2019-06-10T20:54:54.267Z,11.97
2019-06-10T20:57:26.124Z,14.27
2019-06-10T20:59:57.992Z,17.33
2019-06-10T21:02:29.743Z,13.43
2019-06-10T21:05:02.771Z,14.53
2019-06-10T21:07:36.541Z,24.70
2019-06-10T21:10:09.728Z,15.43
2019-06-10T21:12:44.350Z,14.03
2019-06-10T21:15:14.482Z,13.50
2019-06-10T21:17:47.281Z,12.70
2019-06-10T21:20:19.231Z,16.70
2019-06-10T21:22:53.451Z,14.50
2019-06-10T21:25:23.871Z,19.43
2019-06-10T21:27:55.515Z,16.33
2019-06-10T21:30:38.545Z,13.47
2019-06-10T21:33:03.635Z,10.43
2019-06-10T21:35:36.031Z,11.33
2019-06-10T21:38:07.772Z,16.87
2019-06-10T21:40:39.524Z,16.77
2019-06-10T21:43:12.977Z,14.37
2019-06-10T21:45:49.944Z,13.00
2019-06-10T21:48:17.975Z,10.93
2019-06-10T21:50:53.515Z,12.33
2019-06-10T21:53:22.929Z,15.33
2019-06-10T21:55:55.269Z,17.37
2019-06-10T21:58:27.061Z,20.30
2019-06-10T22:01:11.616Z,23.97
2019-06-10T22:03:32.347Z,32.33
2019-06-10T22:06:04.278Z,35.60
2019-06-10T22:08:35.827Z,36.37
2019-06-10T22:11:07.589Z,37.17
2019-06-10T22:13:39.443Z,27.10
2019-06-10T22:16:11.657Z,31.27
2019-06-10T22:18:44.511Z,25.70
2019-06-10T22:21:16.361Z,24.00
2019-06-10T22:23:48.764Z,20.90
2019-06-10T22:26:22.491Z,23.20
2019-06-10T22:28:55.806Z,19.13
2019-06-10T22:31:27.491Z,18.67
2019-06-10T22:34:00.165Z,21.47
2019-06-10T22:36:32.688Z,17.97
2019-06-10T22:39:05.225Z,23.00
2019-06-10T22:41:36.667Z,16.00
2019-06-10T22:44:08.420Z,17.70
2019-06-10T22:46:42.374Z,14.47
2019-06-10T22:49:13.603Z,20.73
2019-06-10T22:51:45.334Z,21.53
2019-06-10T22:54:17.096Z,19.47
2019-06-10T22:56:49.447Z,11.43
2019-06-10T22:59:22.928Z,17.23
2019-06-10T23:01:56.296Z,13.43
2019-06-10T23:04:27.707Z,16.27
2019-06-10T23:07:00.596Z,15.43
2019-06-10T23:09:32.962Z,11.17
2019-06-10T23:12:07.529Z,10.87
2019-06-10T23:14:39.858Z,11.77
2019-06-10T23:17:14.041Z,15.27
2019-06-10T23:19:44.805Z,10.67
2019-06-10T23:22:16.568Z,12.47
2019-06-10T23:24:49.542Z,11.60
2019-06-10T23:27:22.283Z,14.80
2019-06-10T23:29:55.592Z,13.83
2019-06-10T23:32:26.880Z,11.37
2019-06-10T23:35:01.038Z,13.53
2019-06-10T23:37:32.543Z,13.37
2019-06-10T23:40:04.854Z,12.13
2019-06-10T23:42:36.263Z,12.13
2019-06-10T23:45:08.844Z,11.07
2019-06-10T23:47:43.150Z,11.70
2019-06-10T23:50:13.950Z,16.93
2019-06-10T23:52:45.364Z,13.27
2019-06-10T23:55:16.997Z,16.67
2019-06-10T23:57:48.549Z,14.07
